sensor_id;sensor_type;location;lat;lon;timestamp;pressure;altitude;pressure_sealevel;temperature;humidity
50226;BME280;36113;50.742;6.432;2022-12-24T00:02:20;147050.59;;;8.39;100.00
50226;BME280;36113;50.742;6.432;2022-12-24T00:04:45;147103.13;;;8.61;100.00
50226;BME280;36113;50.742;6.432;2022-12-24T00:07:11;147100.66;;;8.60;100.00
50226;BME280;36113;50.742;6.432;2022-12-24T00:09:36;147089.38;;;8.55;100.00
50226;BME280;36113;50.742;6.432;2022-12-24T00:12:02;147064.38;;;8.45;100.00
50226;BME280;36113;50.742;6.432;2022-12-24T00:14:28;147043.06;;;8.36;100.00
50226;BME280;36113;50.742;6.432;2022-12-24T00:16:53;147040.56;;;8.35;100.00
50226;BME280;36113;50.742;6.432;2022-12-24T00:19:19;147023.06;;;8.28;100.00
50226;BME280;36113;50.742;6.432;2022-12-24T00:21:44;147019.31;;;8.26;100.00
50226;BME280;36113;50.742;6.432;2022-12-24T00:24:09;147096.91;;;8.58;100.00
50226;BME280;36113;50.742;6.432;2022-12-24T00:26:35;147093.16;;;8.57;100.00
50226;BME280;36113;50.742;6.432;2022-12-24T00:29:00;147099.38;;;8.59;100.00
50226;BME280;36113;50.742;6.432;2022-12-24T00:31:25;147056.81;;;8.42;100.00
50226;BME280;36113;50.742;6.432;2022-12-24T00:33:51;147108.19;;;8.63;100.00
50226;BME280;36113;50.742;6.432;2022-12-24T00:36:17;146999.34;;;8.18;100.00
50226;BME280;36113;50.742;6.432;2022-12-24T00:38:43;146993.06;;;8.16;100.00
50226;BME280;36113;50.742;6.432;2022-12-24T00:41:09;146988.06;;;8.14;100.00
50226;BME280;36113;50.742;6.432;2022-12-24T00:43:52;147074.38;;;8.49;100.00
50226;BME280;36113;50.742;6.432;2022-12-24T00:46:18;147060.63;;;8.43;100.00
50226;BME280;36113;50.742;6.432;2022-12-24T00:48:43;147060.63;;;8.43;100.00
50226;BME280;36113;50.742;6.432;2022-12-24T00:51:08;147093.16;;;8.57;100.00
50226;BME280;36113;50.742;6.432;2022-12-24T00:53:34;147075.66;;;8.50;100.00
50226;BME280;36113;50.742;6.432;2022-12-24T00:55:59;147084.41;;;8.53;100.00
50226;BME280;36113;50.742;6.432;2022-12-24T00:58:24;147036.78;;;8.34;100.00
50226;BME280;36113;50.742;6.432;2022-12-24T01:00:50;147103.13;;;8.61;100.00
50226;BME280;36113;50.742;6.432;2022-12-24T01:03:16;147081.88;;;8.52;100.00
50226;BME280;36113;50.742;6.432;2022-12-24T01:05:41;147000.56;;;8.19;100.00
50226;BME280;36113;50.742;6.432;2022-12-24T01:08:07;147073.13;;;8.49;100.00
50226;BME280;36113;50.742;6.432;2022-12-24T01:10:32;147074.38;;;8.49;100.00
50226;BME280;36113;50.742;6.432;2022-12-24T01:13:00;147054.34;;;8.41;100.00
50226;BME280;36113;50.742;6.432;2022-12-24T01:15:27;147028.06;;;8.30;100.00
50226;BME280;36113;50.742;6.432;2022-12-24T01:17:52;147073.13;;;8.49;100.00
50226;BME280;36113;50.742;6.432;2022-12-24T01:20:18;147084.41;;;8.53;100.00
50226;BME280;36113;50.742;6.432;2022-12-24T01:22:43;147011.84;;;8.23;100.00
50226;BME280;36113;50.742;6.432;2022-12-24T01:25:09;147016.81;;;8.25;100.00
50226;BME280;36113;50.742;6.432;2022-12-24T01:27:34;147043.06;;;8.36;100.00
50226;BME280;36113;50.742;6.432;2022-12-24T01:30:00;147018.06;;;8.26;100.00
50226;BME280;36113;50.742;6.432;2022-12-24T01:32:25;147071.88;;;8.48;100.00
50226;BME280;36113;50.742;6.432;2022-12-24T01:34:50;147055.56;;;8.41;100.00
50226;BME280;36113;50.742;6.432;2022-12-24T01:37:16;147011.84;;;8.23;100.00
50226;BME280;36113;50.742;6.432;2022-12-24T01:39:41;146988.06;;;8.14;100.00
50226;BME280;36113;50.742;6.432;2022-12-24T01:42:19;147024.34;;;8.29;100.00
50226;BME280;36113;50.742;6.432;2022-12-24T01:45:45;147035.56;;;8.33;100.00
50226;BME280;36113;50.742;6.432;2022-12-24T01:48:43;147040.56;;;8.35;100.00
50226;BME280;36113;50.742;6.432;2022-12-24T01:53:38;146918.03;;;7.85;100.00
50226;BME280;36113;50.742;6.432;2022-12-24T01:56:06;147030.56;;;8.31;100.00
50226;BME280;36113;50.742;6.432;2022-12-24T01:58:33;146988.06;;;8.14;100.00
50226;BME280;36113;50.742;6.432;2022-12-24T02:01:00;146995.56;;;8.17;100.00
50226;BME280;36113;50.742;6.432;2022-12-24T02:03:25;146938.06;;;7.93;100.00
50226;BME280;36113;50.742;6.432;2022-12-24T02:05:53;147038.09;;;8.34;100.00
50226;BME280;36113;50.742;6.432;2022-12-24T02:08:20;146963.06;;;8.03;100.00
50226;BME280;36113;50.742;6.432;2022-12-24T02:10:47;146985.53;;;8.13;100.00
50226;BME280;36113;50.742;6.432;2022-12-24T02:13:15;146900.56;;;7.78;100.00
50226;BME280;36113;50.742;6.432;2022-12-24T02:15:53;146941.81;;;7.95;100.00
50226;BME280;36113;50.742;6.432;2022-12-24T02:18:47;146976.78;;;8.09;100.00
50226;BME280;36113;50.742;6.432;2022-12-24T02:21:22;147034.31;;;8.33;100.00
50226;BME280;36113;50.742;6.432;2022-12-24T02:26:37;147041.84;;;8.36;100.00
50226;BME280;36113;50.742;6.432;2022-12-24T02:29:21;147053.06;;;8.40;100.00
50226;BME280;36113;50.742;6.432;2022-12-24T02:32:01;147030.56;;;8.31;100.00
50226;BME280;36113;50.742;6.432;2022-12-24T02:37:07;147021.81;;;8.27;100.00
50226;BME280;36113;50.742;6.432;2022-12-24T02:39:42;147018.06;;;8.26;100.00
50226;BME280;36113;50.742;6.432;2022-12-24T02:42:11;147004.31;;;8.20;100.00
50226;BME280;36113;50.742;6.432;2022-12-24T02:44:46;146959.31;;;8.02;100.00
50226;BME280;36113;50.742;6.432;2022-12-24T02:47:13;146913.06;;;7.83;100.00
50226;BME280;36113;50.742;6.432;2022-12-24T02:49:43;146991.81;;;8.15;100.00
50226;BME280;36113;50.742;6.432;2022-12-24T02:52:29;147003.03;;;8.20;100.00
50226;BME280;36113;50.742;6.432;2022-12-24T02:54:56;146965.53;;;8.04;100.00
50226;BME280;36113;50.742;6.432;2022-12-24T03:00:09;146955.53;;;8.00;100.00
50226;BME280;36113;50.742;6.432;2022-12-24T03:05:27;146990.53;;;8.15;100.00
50226;BME280;36113;50.742;6.432;2022-12-24T03:08:03;146973.03;;;8.07;100.00
50226;BME280;36113;50.742;6.432;2022-12-24T03:13:05;146919.28;;;7.85;100.00
50226;BME280;36113;50.742;6.432;2022-12-24T03:15:36;146953.03;;;7.99;100.00
50226;BME280;36113;50.742;6.432;2022-12-24T03:18:02;146973.03;;;8.07;100.00
50226;BME280;36113;50.742;6.432;2022-12-24T03:21:05;146931.78;;;7.91;100.00
50226;BME280;36113;50.742;6.432;2022-12-24T03:23:26;146975.56;;;8.08;100.00
50226;BME280;36113;50.742;6.432;2022-12-24T03:25:52;146848.03;;;7.56;100.00
50226;BME280;36113;50.742;6.432;2022-12-24T03:28:23;146933.06;;;7.91;100.00
50226;BME280;36113;50.742;6.432;2022-12-24T03:30:49;146963.06;;;8.03;100.00
50226;BME280;36113;50.742;6.432;2022-12-24T03:33:15;146988.06;;;8.14;100.00
50226;BME280;36113;50.742;6.432;2022-12-24T03:35:41;146959.31;;;8.02;100.00
50226;BME280;36113;50.742;6.432;2022-12-24T03:38:06;146908.06;;;7.81;100.00
50226;BME280;36113;50.742;6.432;2022-12-24T03:40:32;146976.78;;;8.09;100.00
50226;BME280;36113;50.742;6.432;2022-12-24T03:42:57;146991.81;;;8.15;100.00
50226;BME280;36113;50.742;6.432;2022-12-24T03:45:23;147001.81;;;8.19;100.00
50226;BME280;36113;50.742;6.432;2022-12-24T03:47:48;146989.31;;;8.14;100.00
50226;BME280;36113;50.742;6.432;2022-12-24T03:50:14;146990.53;;;8.15;100.00
50226;BME280;36113;50.742;6.432;2022-12-24T03:52:39;146801.81;;;7.37;100.00
50226;BME280;36113;50.742;6.432;2022-12-24T03:55:05;146870.56;;;7.65;100.00
50226;BME280;36113;50.742;6.432;2022-12-24T03:57:30;146863.06;;;7.62;100.00
50226;BME280;36113;50.742;6.432;2022-12-24T03:59:55;146883.06;;;7.70;100.00
50226;BME280;36113;50.742;6.432;2022-12-24T04:02:20;146839.28;;;7.53;100.00
50226;BME280;36113;50.742;6.432;2022-12-24T04:04:46;146906.78;;;7.80;100.00
50226;BME280;36113;50.742;6.432;2022-12-24T04:07:11;146836.81;;;7.51;100.00
50226;BME280;36113;50.742;6.432;2022-12-24T04:09:39;146846.81;;;7.56;100.00
50226;BME280;36113;50.742;6.432;2022-12-24T04:12:06;146914.28;;;7.83;100.00
50226;BME280;36113;50.742;6.432;2022-12-24T04:14:31;146911.81;;;7.82;100.00
50226;BME280;36113;50.742;6.432;2022-12-24T04:16:57;146850.56;;;7.57;100.00
50226;BME280;36113;50.742;6.432;2022-12-24T04:19:22;146923.03;;;7.87;100.00
50226;BME280;36113;50.742;6.432;2022-12-24T04:21:47;146889.28;;;7.73;100.00
50226;BME280;36113;50.742;6.432;2022-12-24T04:24:12;146943.03;;;7.95;100.00
50226;BME280;36113;50.742;6.432;2022-12-24T04:26:38;146974.31;;;8.08;100.00
50226;BME280;36113;50.742;6.432;2022-12-24T04:29:03;146976.78;;;8.09;100.00
50226;BME280;36113;50.742;6.432;2022-12-24T04:31:28;146958.06;;;8.01;100.00
50226;BME280;36113;50.742;6.432;2022-12-24T04:33:54;146889.28;;;7.73;100.00
50226;BME280;36113;50.742;6.432;2022-12-24T04:36:19;146940.53;;;7.94;100.00
50226;BME280;36113;50.742;6.432;2022-12-24T04:38:46;146924.31;;;7.87;100.00
50226;BME280;36113;50.742;6.432;2022-12-24T04:41:17;146930.53;;;7.90;100.00
50226;BME280;36113;50.742;6.432;2022-12-24T04:43:43;146968.06;;;8.05;100.00
50226;BME280;36113;50.742;6.432;2022-12-24T04:46:17;146908.06;;;7.81;100.00
50226;BME280;36113;50.742;6.432;2022-12-24T04:48:46;146951.78;;;7.99;100.00
50226;BME280;36113;50.742;6.432;2022-12-24T04:51:12;146929.31;;;7.89;100.00
50226;BME280;36113;50.742;6.432;2022-12-24T04:53:38;146963.06;;;8.03;100.00
50226;BME280;36113;50.742;6.432;2022-12-24T04:56:08;146991.81;;;8.15;100.00
50226;BME280;36113;50.742;6.432;2022-12-24T04:58:35;146929.31;;;7.89;100.00
50226;BME280;36113;50.742;6.432;2022-12-24T05:01:05;146970.56;;;8.06;100.00
50226;BME280;36113;50.742;6.432;2022-12-24T05:03:31;146944.28;;;7.96;100.00
50226;BME280;36113;50.742;6.432;2022-12-24T05:06:05;146950.56;;;7.98;100.00
50226;BME280;36113;50.742;6.432;2022-12-24T05:08:30;146968.06;;;8.05;100.00
50226;BME280;36113;50.742;6.432;2022-12-24T05:10:57;146899.31;;;7.77;100.00
50226;BME280;36113;50.742;6.432;2022-12-24T05:13:23;146941.81;;;7.95;100.00
50226;BME280;36113;50.742;6.432;2022-12-24T05:15:49;146878.06;;;7.68;100.00
50226;BME280;36113;50.742;6.432;2022-12-24T05:18:14;146908.06;;;7.81;100.00
50226;BME280;36113;50.742;6.432;2022-12-24T05:20:40;146829.31;;;7.48;100.00
50226;BME280;36113;50.742;6.432;2022-12-24T05:23:05;146931.78;;;7.91;100.00
50226;BME280;36113;50.742;6.432;2022-12-24T05:25:49;146951.78;;;7.99;100.00
50226;BME280;36113;50.742;6.432;2022-12-24T05:28:33;146845.56;;;7.55;100.00
50226;BME280;36113;50.742;6.432;2022-12-24T05:30:59;146979.31;;;8.10;100.00
50226;BME280;36113;50.742;6.432;2022-12-24T05:33:24;146965.53;;;8.04;100.00
50226;BME280;36113;50.742;6.432;2022-12-24T05:35:51;146903.06;;;7.79;100.00
50226;BME280;36113;50.742;6.432;2022-12-24T05:38:16;146980.56;;;8.11;100.00
50226;BME280;36113;50.742;6.432;2022-12-24T05:40:41;146946.81;;;7.97;100.00
50226;BME280;36113;50.742;6.432;2022-12-24T05:43:06;147004.31;;;8.20;100.00
50226;BME280;36113;50.742;6.432;2022-12-24T05:45:32;146938.06;;;7.93;100.00
50226;BME280;36113;50.742;6.432;2022-12-24T05:47:57;147010.56;;;8.23;100.00
50226;BME280;36113;50.742;6.432;2022-12-24T05:50:22;147004.31;;;8.20;100.00
50226;BME280;36113;50.742;6.432;2022-12-24T05:52:48;146984.31;;;8.12;100.00
50226;BME280;36113;50.742;6.432;2022-12-24T05:55:13;146995.56;;;8.17;100.00
50226;BME280;36113;50.742;6.432;2022-12-24T05:57:39;147040.56;;;8.35;100.00
50226;BME280;36113;50.742;6.432;2022-12-24T06:00:06;147021.81;;;8.27;100.00
50226;BME280;36113;50.742;6.432;2022-12-24T06:02:31;146973.03;;;8.07;100.00
50226;BME280;36113;50.742;6.432;2022-12-24T06:04:56;147013.06;;;8.24;100.00
50226;BME280;36113;50.742;6.432;2022-12-24T06:07:22;147014.31;;;8.24;100.00
50226;BME280;36113;50.742;6.432;2022-12-24T06:09:47;146974.31;;;8.08;100.00
50226;BME280;36113;50.742;6.432;2022-12-24T06:12:12;146978.03;;;8.10;100.00
50226;BME280;36113;50.742;6.432;2022-12-24T06:14:38;146914.28;;;7.83;100.00
50226;BME280;36113;50.742;6.432;2022-12-24T06:17:03;146990.53;;;8.15;100.00
50226;BME280;36113;50.742;6.432;2022-12-24T06:19:28;146966.81;;;8.05;100.00
50226;BME280;36113;50.742;6.432;2022-12-24T06:21:53;147011.84;;;8.23;100.00
50226;BME280;36113;50.742;6.432;2022-12-24T06:24:19;146946.81;;;7.97;100.00
50226;BME280;36113;50.742;6.432;2022-12-24T06:26:47;146949.31;;;7.98;100.00
50226;BME280;36113;50.742;6.432;2022-12-24T06:29:12;146980.56;;;8.11;100.00
50226;BME280;36113;50.742;6.432;2022-12-24T06:31:37;146919.28;;;7.85;100.00
50226;BME280;36113;50.742;6.432;2022-12-24T06:34:03;146956.78;;;8.01;100.00
50226;BME280;36113;50.742;6.432;2022-12-24T06:36:28;147000.56;;;8.19;100.00
50226;BME280;36113;50.742;6.432;2022-12-24T06:38:54;146960.53;;;8.02;100.00
50226;BME280;36113;50.742;6.432;2022-12-24T06:41:20;146984.31;;;8.12;100.00
50226;BME280;36113;50.742;6.432;2022-12-24T06:43:46;146970.56;;;8.06;100.00
50226;BME280;36113;50.742;6.432;2022-12-24T06:46:13;146886.81;;;7.72;100.00
50226;BME280;36113;50.742;6.432;2022-12-24T06:48:38;147008.09;;;8.22;100.00
50226;BME280;36113;50.742;6.432;2022-12-24T06:51:04;146939.28;;;7.94;100.00
50226;BME280;36113;50.742;6.432;2022-12-24T06:53:30;147015.53;;;8.25;100.00
50226;BME280;36113;50.742;6.432;2022-12-24T06:56:06;146971.81;;;8.07;100.00
50226;BME280;36113;50.742;6.432;2022-12-24T06:58:33;146914.28;;;7.83;100.00
50226;BME280;36113;50.742;6.432;2022-12-24T07:01:04;146996.81;;;8.17;100.00
50226;BME280;36113;50.742;6.432;2022-12-24T07:03:31;146991.81;;;8.15;100.00
50226;BME280;36113;50.742;6.432;2022-12-24T07:05:57;147004.31;;;8.20;100.00
50226;BME280;36113;50.742;6.432;2022-12-24T07:08:23;147013.06;;;8.24;100.00
50226;BME280;36113;50.742;6.432;2022-12-24T07:10:50;146965.53;;;8.04;100.00
50226;BME280;36113;50.742;6.432;2022-12-24T07:13:16;146984.31;;;8.12;100.00
50226;BME280;36113;50.742;6.432;2022-12-24T07:15:41;146953.03;;;7.99;100.00
50226;BME280;36113;50.742;6.432;2022-12-24T07:18:07;146963.06;;;8.03;100.00
50226;BME280;36113;50.742;6.432;2022-12-24T07:20:32;146974.31;;;8.08;100.00
50226;BME280;36113;50.742;6.432;2022-12-24T07:22:57;146975.56;;;8.08;100.00
50226;BME280;36113;50.742;6.432;2022-12-24T07:25:25;147015.53;;;8.25;100.00
50226;BME280;36113;50.742;6.432;2022-12-24T07:27:51;147010.56;;;8.23;100.00
50226;BME280;36113;50.742;6.432;2022-12-24T07:30:16;146958.06;;;8.01;100.00
50226;BME280;36113;50.742;6.432;2022-12-24T07:32:42;146939.28;;;7.94;100.00
50226;BME280;36113;50.742;6.432;2022-12-24T07:35:07;146976.78;;;8.09;100.00
50226;BME280;36113;50.742;6.432;2022-12-24T07:37:33;146901.78;;;7.78;100.00
50226;BME280;36113;50.742;6.432;2022-12-24T07:39:58;146943.03;;;7.95;100.00
50226;BME280;36113;50.742;6.432;2022-12-24T07:42:24;146971.81;;;8.07;100.00
50226;BME280;36113;50.742;6.432;2022-12-24T07:44:50;146921.81;;;7.86;100.00
50226;BME280;36113;50.742;6.432;2022-12-24T07:47:15;146984.31;;;8.12;100.00
50226;BME280;36113;50.742;6.432;2022-12-24T07:49:41;146919.28;;;7.85;100.00
50226;BME280;36113;50.742;6.432;2022-12-24T07:52:06;146965.53;;;8.04;100.00
50226;BME280;36113;50.742;6.432;2022-12-24T07:54:31;146991.81;;;8.15;100.00
50226;BME280;36113;50.742;6.432;2022-12-24T07:56:57;146924.31;;;7.87;100.00
50226;BME280;36113;50.742;6.432;2022-12-24T07:59:23;146971.81;;;8.07;100.00
50226;BME280;36113;50.742;6.432;2022-12-24T08:01:48;146916.81;;;7.84;100.00
50226;BME280;36113;50.742;6.432;2022-12-24T08:04:13;147010.56;;;8.23;100.00
50226;BME280;36113;50.742;6.432;2022-12-24T08:06:40;147021.81;;;8.27;100.00
50226;BME280;36113;50.742;6.432;2022-12-24T08:09:05;147023.06;;;8.28;100.00
50226;BME280;36113;50.742;6.432;2022-12-24T08:11:31;147041.84;;;8.36;100.00
50226;BME280;36113;50.742;6.432;2022-12-24T08:13:56;147005.56;;;8.21;100.00
50226;BME280;36113;50.742;6.432;2022-12-24T08:16:22;147031.81;;;8.32;100.00
50226;BME280;36113;50.742;6.432;2022-12-24T08:18:47;147043.06;;;8.36;100.00
50226;BME280;36113;50.742;6.432;2022-12-24T08:21:13;147053.06;;;8.40;100.00
50226;BME280;36113;50.742;6.432;2022-12-24T08:23:38;147038.09;;;8.34;100.00
50226;BME280;36113;50.742;6.432;2022-12-24T08:26:08;147094.38;;;8.57;100.00
50226;BME280;36113;50.742;6.432;2022-12-24T08:31:29;147073.13;;;8.49;100.00
50226;BME280;36113;50.742;6.432;2022-12-24T08:33:54;147134.44;;;8.74;100.00
50226;BME280;36113;50.742;6.432;2022-12-24T08:36:19;147091.91;;;8.56;100.00
50226;BME280;36113;50.742;6.432;2022-12-24T08:38:45;147166.97;;;8.87;100.00
50226;BME280;36113;50.742;6.432;2022-12-24T08:41:10;147104.41;;;8.61;100.00
50226;BME280;36113;50.742;6.432;2022-12-24T08:43:35;147133.19;;;8.73;100.00
50226;BME280;36113;50.742;6.432;2022-12-24T08:46:03;147158.16;;;8.83;100.00
50226;BME280;36113;50.742;6.432;2022-12-24T08:48:29;147158.16;;;8.83;100.00
50226;BME280;36113;50.742;6.432;2022-12-24T08:50:54;147180.72;;;8.93;100.00
50226;BME280;36113;50.742;6.432;2022-12-24T08:53:21;147184.47;;;8.94;100.00
50226;BME280;36113;50.742;6.432;2022-12-24T08:55:46;147244.50;;;9.19;100.00
50226;BME280;36113;50.742;6.432;2022-12-24T08:58:12;147218.25;;;9.08;100.00
50226;BME280;36113;50.742;6.432;2022-12-24T09:00:38;147243.28;;;9.18;100.00
50226;BME280;36113;50.742;6.432;2022-12-24T09:03:11;147218.25;;;9.08;100.00
50226;BME280;36113;50.742;6.432;2022-12-24T09:05:39;147242.03;;;9.18;100.00
50226;BME280;36113;50.742;6.432;2022-12-24T09:08:04;147244.50;;;9.19;100.00
50226;BME280;36113;50.742;6.432;2022-12-24T09:10:29;147289.56;;;9.37;100.00
50226;BME280;36113;50.742;6.432;2022-12-24T09:12:55;147294.56;;;9.39;100.00
50226;BME280;36113;50.742;6.432;2022-12-24T09:15:20;147269.53;;;9.29;100.00
50226;BME280;36113;50.742;6.432;2022-12-24T09:17:45;147224.47;;;9.11;100.00
50226;BME280;36113;50.742;6.432;2022-12-24T09:20:11;147279.53;;;9.33;100.00
50226;BME280;36113;50.742;6.432;2022-12-24T09:22:37;147263.31;;;9.27;100.00
50226;BME280;36113;50.742;6.432;2022-12-24T09:25:03;147264.53;;;9.27;100.00
50226;BME280;36113;50.742;6.432;2022-12-24T09:27:30;147288.31;;;9.37;100.00
50226;BME280;36113;50.742;6.432;2022-12-24T09:29:55;147252.03;;;9.22;100.00
50226;BME280;36113;50.742;6.432;2022-12-24T09:32:21;147272.06;;;9.30;100.00
50226;BME280;36113;50.742;6.432;2022-12-24T09:34:46;147280.81;;;9.34;100.00
50226;BME280;36113;50.742;6.432;2022-12-24T09:37:11;147310.84;;;9.46;100.00
50226;BME280;36113;50.742;6.432;2022-12-24T09:39:37;147339.63;;;9.58;100.00
50226;BME280;36113;50.742;6.432;2022-12-24T09:42:22;147318.34;;;9.49;100.00
50226;BME280;36113;50.742;6.432;2022-12-24T09:47:30;147324.59;;;9.52;100.00
50226;BME280;36113;50.742;6.432;2022-12-24T09:50:00;147363.38;;;9.68;100.00
50226;BME280;36113;50.742;6.432;2022-12-24T09:52:39;147337.09;;;9.57;100.00
50226;BME280;36113;50.742;6.432;2022-12-24T09:57:39;147325.88;;;9.52;100.00
50226;BME280;36113;50.742;6.432;2022-12-24T10:00:18;147268.28;;;9.29;100.00
50226;BME280;36113;50.742;6.432;2022-12-24T10:02:44;147288.31;;;9.37;100.00
50226;BME280;36113;50.742;6.432;2022-12-24T10:05:13;147328.34;;;9.53;100.00
50226;BME280;36113;50.742;6.432;2022-12-24T10:07:47;147320.84;;;9.50;100.00
50226;BME280;36113;50.742;6.432;2022-12-24T10:13:18;147287.03;;;9.36;100.00
50226;BME280;36113;50.742;6.432;2022-12-24T10:15:49;147342.09;;;9.59;100.00
50226;BME280;36113;50.742;6.432;2022-12-24T10:18:35;147348.38;;;9.62;100.00
50226;BME280;36113;50.742;6.432;2022-12-24T10:21:14;147309.59;;;9.46;100.00
50226;BME280;36113;50.742;6.432;2022-12-24T10:23:47;147363.38;;;9.68;100.00
50226;BME280;36113;50.742;6.432;2022-12-24T10:26:22;147364.66;;;9.68;100.00
50226;BME280;36113;50.742;6.432;2022-12-24T10:31:40;147260.78;;;9.26;100.00
50226;BME280;36113;50.742;6.432;2022-12-24T10:34:16;147347.16;;;9.61;100.00
50226;BME280;36113;50.742;6.432;2022-12-24T10:36:43;147369.66;;;9.70;100.00
50226;BME280;36113;50.742;6.432;2022-12-24T10:39:16;147398.47;;;9.82;100.00
50226;BME280;36113;50.742;6.432;2022-12-24T10:41:43;147315.84;;;9.48;100.00
50226;BME280;36113;50.742;6.432;2022-12-24T10:44:14;147367.13;;;9.69;100.00
50226;BME280;36113;50.742;6.432;2022-12-24T10:46:41;147359.66;;;9.66;100.00
50226;BME280;36113;50.742;6.432;2022-12-24T10:49:33;147324.59;;;9.52;100.00
50226;BME280;36113;50.742;6.432;2022-12-24T10:52:05;147303.31;;;9.43;100.00
50226;BME280;36113;50.742;6.432;2022-12-24T10:54:35;147330.88;;;9.54;100.00
50226;BME280;36113;50.742;6.432;2022-12-24T10:57:05;147345.88;;;9.61;100.00
50226;BME280;36113;50.742;6.432;2022-12-24T10:59:41;147353.38;;;9.64;100.00
50226;BME280;36113;50.742;6.432;2022-12-24T11:04:51;147338.41;;;9.57;100.00
50226;BME280;36113;50.742;6.432;2022-12-24T11:07:20;147387.19;;;9.77;100.00
50226;BME280;36113;50.742;6.432;2022-12-24T11:10:06;147400.94;;;9.83;100.00
50226;BME280;36113;50.742;6.432;2022-12-24T11:12:36;147340.88;;;9.58;100.00
50226;BME280;36113;50.742;6.432;2022-12-24T11:15:32;147399.69;;;9.83;100.00
50226;BME280;36113;50.742;6.432;2022-12-24T11:18:03;147418.50;;;9.90;100.00
50226;BME280;36113;50.742;6.432;2022-12-24T11:20:32;147363.38;;;9.68;100.00
50226;BME280;36113;50.742;6.432;2022-12-24T11:22:58;147354.63;;;9.64;100.00
50226;BME280;36113;50.742;6.432;2022-12-24T11:25:26;147368.44;;;9.70;100.00
50226;BME280;36113;50.742;6.432;2022-12-24T11:27:54;147382.19;;;9.75;100.00
50226;BME280;36113;50.742;6.432;2022-12-24T11:30:31;147383.41;;;9.76;100.00
50226;BME280;36113;50.742;6.432;2022-12-24T11:35:27;147388.41;;;9.78;100.00
50226;BME280;36113;50.742;6.432;2022-12-24T11:40:34;147393.47;;;9.80;100.00
50226;BME280;36113;50.742;6.432;2022-12-24T11:43:00;147385.94;;;9.77;100.00
50226;BME280;36113;50.742;6.432;2022-12-24T11:45:27;147403.47;;;9.84;100.00
50226;BME280;36113;50.742;6.432;2022-12-24T11:47:54;147404.69;;;9.85;100.00
50226;BME280;36113;50.742;6.432;2022-12-24T11:50:26;147364.66;;;9.68;100.00
50226;BME280;36113;50.742;6.432;2022-12-24T11:53:01;147420.97;;;9.91;100.00
50226;BME280;36113;50.742;6.432;2022-12-24T11:55:47;147466.06;;;10.10;100.00
50226;BME280;36113;50.742;6.432;2022-12-24T12:00:45;147521.19;;;10.32;100.00
50226;BME280;36113;50.742;6.432;2022-12-24T12:03:28;147560.00;;;10.48;100.00
50226;BME280;36113;50.742;6.432;2022-12-24T12:05:55;147562.53;;;10.49;100.00
50226;BME280;36113;50.742;6.432;2022-12-24T12:08:25;147585.06;;;10.59;100.00
50226;BME280;36113;50.742;6.432;2022-12-24T12:10:52;147528.72;;;10.36;100.00
50226;BME280;36113;50.742;6.432;2022-12-24T12:13:22;147552.53;;;10.45;100.00
50226;BME280;36113;50.742;6.432;2022-12-24T12:16:04;147458.53;;;10.07;100.00
50226;BME280;36113;50.742;6.432;2022-12-24T12:18:46;147477.34;;;10.14;100.00
50226;BME280;36113;50.742;6.432;2022-12-24T12:21:18;147504.88;;;10.26;100.00
50226;BME280;36113;50.742;6.432;2022-12-24T12:23:51;147484.81;;;10.18;100.00
50226;BME280;36113;50.742;6.432;2022-12-24T12:26:23;147580.06;;;10.57;100.00
50226;BME280;36113;50.742;6.432;2022-12-24T12:31:34;147568.81;;;10.52;100.00
50226;BME280;36113;50.742;6.432;2022-12-24T12:34:24;147575.06;;;10.55;100.00
50226;BME280;36113;50.742;6.432;2022-12-24T12:36:57;147593.81;;;10.62;100.00
50226;BME280;36113;50.742;6.432;2022-12-24T12:39:24;147581.28;;;10.57;100.00
50226;BME280;36113;50.742;6.432;2022-12-24T12:42:00;147608.88;;;10.68;100.00
50226;BME280;36113;50.742;6.432;2022-12-24T12:44:33;147607.63;;;10.68;100.00
50226;BME280;36113;50.742;6.432;2022-12-24T12:47:09;147606.34;;;10.67;100.00
50226;BME280;36113;50.742;6.432;2022-12-24T12:50:06;147585.06;;;10.59;100.00
50226;BME280;36113;50.742;6.432;2022-12-24T12:58:02;147497.34;;;10.23;100.00
50226;BME280;36113;50.742;6.432;2022-12-24T13:00:30;147464.81;;;10.09;100.00
50226;BME280;36113;50.742;6.432;2022-12-24T13:03:22;147409.75;;;9.87;100.00
50226;BME280;36113;50.742;6.432;2022-12-24T13:11:40;147414.75;;;9.89;100.00
50226;BME280;36113;50.742;6.432;2022-12-24T13:22:17;147360.91;;;9.67;100.00
50226;BME280;36113;50.742;6.432;2022-12-24T13:24:53;147325.88;;;9.52;100.00
50226;BME280;36113;50.742;6.432;2022-12-24T13:27:29;147354.63;;;9.64;100.00
50226;BME280;36113;50.742;6.432;2022-12-24T13:29:58;147340.88;;;9.58;100.00
50226;BME280;36113;50.742;6.432;2022-12-24T13:37:41;147339.63;;;9.58;100.00
50226;BME280;36113;50.742;6.432;2022-12-24T13:50:37;147254.50;;;9.23;100.00
50226;BME280;36113;50.742;6.432;2022-12-24T13:53:05;147327.13;;;9.53;100.00
50226;BME280;36113;50.742;6.432;2022-12-24T13:56:00;147302.09;;;9.43;100.00
50226;BME280;36113;50.742;6.432;2022-12-24T13:58:27;147283.28;;;9.35;100.00
50226;BME280;36113;50.742;6.432;2022-12-24T14:01:04;147312.06;;;9.47;100.00
50226;BME280;36113;50.742;6.432;2022-12-24T14:03:34;147287.03;;;9.36;100.00
50226;BME280;36113;50.742;6.432;2022-12-24T14:06:04;147262.00;;;9.26;100.00
50226;BME280;36113;50.742;6.432;2022-12-24T14:08:34;147168.19;;;8.88;100.00
50226;BME280;36113;50.742;6.432;2022-12-24T14:16:23;147317.06;;;9.49;100.00
50226;BME280;36113;50.742;6.432;2022-12-24T14:21:21;147232.00;;;9.14;100.00
50226;BME280;36113;50.742;6.432;2022-12-24T14:24:05;147345.88;;;9.61;100.00
50226;BME280;36113;50.742;6.432;2022-12-24T14:26:44;147343.38;;;9.60;100.00